sensor_id;sensor_type;location;lat;lon;timestamp;pressure;altitude;pressure_sealevel;temperature;humidity
65659;BME280;60181;53.258;6.932;2023-04-20T00:02:23;102666.81;;;15.84;54.60
65659;BME280;60181;53.258;6.932;2023-04-20T00:06:27;102661.89;;;15.83;54.52
65659;BME280;60181;53.258;6.932;2023-04-20T00:10:31;102655.37;;;15.81;54.29
65659;BME280;60181;53.258;6.932;2023-04-20T00:14:35;102649.79;;;15.80;54.26
65659;BME280;60181;53.258;6.932;2023-04-20T00:18:39;102643.23;;;15.79;54.18
65659;BME280;60181;53.258;6.932;2023-04-20T00:22:43;102636.74;;;15.78;54.01
65659;BME280;60181;53.258;6.932;2023-04-20T00:26:47;102631.09;;;15.77;53.95
65659;BME280;60181;53.258;6.932;2023-04-20T00:30:51;102626.92;;;15.76;53.86
65659;BME280;60181;53.258;6.932;2023-04-20T00:34:55;102620.72;;;15.75;53.79
65659;BME280;60181;53.258;6.932;2023-04-20T00:38:59;102614.23;;;15.74;53.71
65659;BME280;60181;53.258;6.932;2023-04-20T00:43:12;102607.75;;;15.73;53.63
65659;BME280;60181;53.258;6.932;2023-04-20T00:47:07;102602.55;;;15.72;53.61
65659;BME280;60181;53.258;6.932;2023-04-20T00:51:11;102598.54;;;15.72;53.49
65659;BME280;60181;53.258;6.932;2023-04-20T00:55:15;102593.21;;;15.71;53.50
65659;BME280;60181;53.258;6.932;2023-04-20T00:59:19;102587.15;;;15.70;53.46
65659;BME280;60181;53.258;6.932;2023-04-20T01:03:23;102582.10;;;15.69;53.45
65659;BME280;60181;53.258;6.932;2023-04-20T01:07:27;102575.21;;;15.68;53.38
65659;BME280;60181;53.258;6.932;2023-04-20T01:11:31;102569.06;;;15.67;53.31
65659;BME280;60181;53.258;6.932;2023-04-20T01:15:35;102561.33;;;15.66;53.27
65659;BME280;60181;53.258;6.932;2023-04-20T01:19:39;102551.88;;;15.65;53.25
65659;BME280;60181;53.258;6.932;2023-04-20T01:23:43;102543.25;;;15.64;53.20
65659;BME280;60181;53.258;6.932;2023-04-20T01:27:47;102534.55;;;15.63;53.23
65659;BME280;60181;53.258;6.932;2023-04-20T01:31:51;102527.36;;;15.63;53.32
65659;BME280;60181;53.258;6.932;2023-04-20T01:35:55;102518.97;;;15.61;53.30
65659;BME280;60181;53.258;6.932;2023-04-20T01:39:59;102511.50;;;15.61;53.20
65659;BME280;60181;53.258;6.932;2023-04-20T01:44:03;102504.61;;;15.60;53.26
65659;BME280;60181;53.258;6.932;2023-04-20T01:48:07;102497.39;;;15.59;53.26
65659;BME280;60181;53.258;6.932;2023-04-20T01:52:11;102491.76;;;15.58;53.22
65659;BME280;60181;53.258;6.932;2023-04-20T01:56:15;102485.53;;;15.57;53.19
65659;BME280;60181;53.258;6.932;2023-04-20T02:00:19;102477.89;;;15.56;53.37
65659;BME280;60181;53.258;6.932;2023-04-20T02:04:23;102471.04;;;15.56;53.27
65659;BME280;60181;53.258;6.932;2023-04-20T02:08:27;102465.80;;;15.57;53.51
65659;BME280;60181;53.258;6.932;2023-04-20T02:12:31;102460.01;;;15.58;53.54
65659;BME280;60181;53.258;6.932;2023-04-20T02:16:35;102456.49;;;15.58;53.73
65659;BME280;60181;53.258;6.932;2023-04-20T02:20:39;102450.67;;;15.59;53.96
65659;BME280;60181;53.258;6.932;2023-04-20T02:24:43;102444.15;;;15.60;53.97
65659;BME280;60181;53.258;6.932;2023-04-20T02:28:47;102438.07;;;15.61;54.18
65659;BME280;60181;53.258;6.932;2023-04-20T02:32:51;102433.61;;;15.61;54.18
65659;BME280;60181;53.258;6.932;2023-04-20T02:36:55;102431.25;;;15.61;54.18
65659;BME280;60181;53.258;6.932;2023-04-20T02:40:59;102427.61;;;15.61;54.17
65659;BME280;60181;53.258;6.932;2023-04-20T02:45:03;102425.15;;;15.61;54.21
65659;BME280;60181;53.258;6.932;2023-04-20T02:49:07;102421.17;;;15.61;54.13
65659;BME280;60181;53.258;6.932;2023-04-20T02:53:11;102418.03;;;15.61;54.21
65659;BME280;60181;53.258;6.932;2023-04-20T02:57:15;102413.95;;;15.61;54.36
65659;BME280;60181;53.258;6.932;2023-04-20T03:01:18;102409.66;;;15.61;54.15
65659;BME280;60181;53.258;6.932;2023-04-20T03:05:23;102406.43;;;15.61;54.27
65659;BME280;60181;53.258;6.932;2023-04-20T03:09:26;102403.72;;;15.61;54.22
65659;BME280;60181;53.258;6.932;2023-04-20T03:13:30;102400.71;;;15.60;54.26
65659;BME280;60181;53.258;6.932;2023-04-20T03:17:34;102400.54;;;15.60;54.11
65659;BME280;60181;53.258;6.932;2023-04-20T03:21:38;102399.59;;;15.59;54.23
65659;BME280;60181;53.258;6.932;2023-04-20T03:25:42;102398.36;;;15.58;54.13
65659;BME280;60181;53.258;6.932;2023-04-20T03:29:46;102395.04;;;15.58;54.18
65659;BME280;60181;53.258;6.932;2023-04-20T03:33:50;102391.05;;;15.57;54.24
65659;BME280;60181;53.258;6.932;2023-04-20T03:37:54;102386.83;;;15.57;54.20
65659;BME280;60181;53.258;6.932;2023-04-20T03:41:58;102383.78;;;15.57;54.13
65659;BME280;60181;53.258;6.932;2023-04-20T03:46:02;102380.28;;;15.56;54.26
65659;BME280;60181;53.258;6.932;2023-04-20T03:50:07;102377.31;;;15.56;54.43
65659;BME280;60181;53.258;6.932;2023-04-20T03:54:10;102376.23;;;15.57;54.56
65659;BME280;60181;53.258;6.932;2023-04-20T03:58:14;102374.99;;;15.56;54.56
65659;BME280;60181;53.258;6.932;2023-04-20T04:02:18;102372.19;;;15.56;54.51
65659;BME280;60181;53.258;6.932;2023-04-20T04:06:22;102372.34;;;15.56;54.44
65659;BME280;60181;53.258;6.932;2023-04-20T04:10:26;102370.36;;;15.56;54.48
65659;BME280;60181;53.258;6.932;2023-04-20T04:14:31;102368.96;;;15.56;54.46
65659;BME280;60181;53.258;6.932;2023-04-20T04:18:34;102365.88;;;15.55;54.47
65659;BME280;60181;53.258;6.932;2023-04-20T04:22:39;102363.31;;;15.55;54.57
65659;BME280;60181;53.258;6.932;2023-04-20T04:26:42;102360.14;;;15.54;54.48
65659;BME280;60181;53.258;6.932;2023-04-20T04:30:46;102357.40;;;15.54;54.59
65659;BME280;60181;53.258;6.932;2023-04-20T04:34:51;102353.74;;;15.53;54.56
65659;BME280;60181;53.258;6.932;2023-04-20T04:38:54;102352.01;;;15.53;54.80
65659;BME280;60181;53.258;6.932;2023-04-20T04:42:58;102349.36;;;15.53;55.16
65659;BME280;60181;53.258;6.932;2023-04-20T04:47:03;102343.50;;;15.53;55.02
65659;BME280;60181;53.258;6.932;2023-04-20T04:51:07;102331.03;;;15.53;54.98
65659;BME280;60181;53.258;6.932;2023-04-20T04:55:10;102329.30;;;15.53;55.11
65659;BME280;60181;53.258;6.932;2023-04-20T04:59:14;102331.86;;;15.53;55.15
65659;BME280;60181;53.258;6.932;2023-04-20T05:03:18;102334.83;;;15.53;55.07
65659;BME280;60181;53.258;6.932;2023-04-20T05:07:22;102337.23;;;15.53;55.07
65659;BME280;60181;53.258;6.932;2023-04-20T05:11:26;102339.62;;;15.53;55.16
65659;BME280;60181;53.258;6.932;2023-04-20T05:15:30;102341.16;;;15.52;55.21
65659;BME280;60181;53.258;6.932;2023-04-20T05:19:34;102341.74;;;15.52;55.24
65659;BME280;60181;53.258;6.932;2023-04-20T05:23:38;102340.16;;;15.51;55.32
65659;BME280;60181;53.258;6.932;2023-04-20T05:27:42;102340.21;;;15.51;55.53
65659;BME280;60181;53.258;6.932;2023-04-20T05:31:46;102341.86;;;15.51;56.69
65659;BME280;60181;53.258;6.932;2023-04-20T05:35:54;102344.45;;;15.51;55.89
65659;BME280;60181;53.258;6.932;2023-04-20T05:39:54;102349.63;;;15.51;56.21
65659;BME280;60181;53.258;6.932;2023-04-20T05:43:58;102353.17;;;15.50;55.81
65659;BME280;60181;53.258;6.932;2023-04-20T05:48:03;102355.38;;;15.50;55.70
65659;BME280;60181;53.258;6.932;2023-04-20T05:52:06;102357.69;;;15.50;55.55
65659;BME280;60181;53.258;6.932;2023-04-20T05:56:10;102358.92;;;15.50;55.60
65659;BME280;60181;53.258;6.932;2023-04-20T06:00:15;102361.06;;;15.50;55.33
65659;BME280;60181;53.258;6.932;2023-04-20T06:04:18;102362.06;;;15.50;55.56
65659;BME280;60181;53.258;6.932;2023-04-20T06:08:22;102362.06;;;15.50;55.50
65659;BME280;60181;53.258;6.932;2023-04-20T06:12:26;102362.23;;;15.50;55.74
65659;BME280;60181;53.258;6.932;2023-04-20T06:16:30;102363.05;;;15.50;55.80
65659;BME280;60181;53.258;6.932;2023-04-20T06:20:34;102365.15;;;15.50;56.01
65659;BME280;60181;53.258;6.932;2023-04-20T06:24:38;102365.14;;;15.53;55.81
65659;BME280;60181;53.258;6.932;2023-04-20T06:28:42;102366.26;;;15.52;55.65
65659;BME280;60181;53.258;6.932;2023-04-20T06:32:46;102366.44;;;15.49;55.43
65659;BME280;60181;53.258;6.932;2023-04-20T06:36:50;102365.91;;;15.46;55.63
65659;BME280;60181;53.258;6.932;2023-04-20T06:40:54;102364.69;;;15.43;55.29
65659;BME280;60181;53.258;6.932;2023-04-20T06:44:58;102363.58;;;15.41;55.35
65659;BME280;60181;53.258;6.932;2023-04-20T06:49:02;102362.77;;;15.38;55.21
65659;BME280;60181;53.258;6.932;2023-04-20T06:53:06;102364.48;;;15.35;55.17
65659;BME280;60181;53.258;6.932;2023-04-20T06:57:10;102364.65;;;15.33;55.08
65659;BME280;60181;53.258;6.932;2023-04-20T07:01:14;102368.05;;;15.31;55.09
65659;BME280;60181;53.258;6.932;2023-04-20T07:05:18;102370.81;;;15.29;55.19
65659;BME280;60181;53.258;6.932;2023-04-20T07:09:22;102370.15;;;15.27;55.07
65659;BME280;60181;53.258;6.932;2023-04-20T07:13:29;102369.70;;;15.26;54.98
65659;BME280;60181;53.258;6.932;2023-04-20T07:17:30;102368.27;;;15.25;54.97
65659;BME280;60181;53.258;6.932;2023-04-20T07:21:34;102366.99;;;15.23;54.96
65659;BME280;60181;53.258;6.932;2023-04-20T07:25:38;102366.21;;;15.23;54.95
65659;BME280;60181;53.258;6.932;2023-04-20T07:29:42;102365.47;;;15.22;54.86
65659;BME280;60181;53.258;6.932;2023-04-20T07:33:46;102363.70;;;15.22;54.79
65659;BME280;60181;53.258;6.932;2023-04-20T07:37:50;102364.25;;;15.28;55.29
65659;BME280;60181;53.258;6.932;2023-04-20T07:41:54;102363.61;;;15.34;55.38
65659;BME280;60181;53.258;6.932;2023-04-20T07:45:58;102361.00;;;15.37;56.10
65659;BME280;60181;53.258;6.932;2023-04-20T07:50:05;102358.75;;;15.42;57.11
65659;BME280;60181;53.258;6.932;2023-04-20T07:54:06;102358.11;;;15.45;56.74
65659;BME280;60181;53.258;6.932;2023-04-20T07:58:10;102357.78;;;15.46;56.52
65659;BME280;60181;53.258;6.932;2023-04-20T08:02:14;102356.30;;;15.45;56.34
65659;BME280;60181;53.258;6.932;2023-04-20T08:06:18;102355.93;;;15.43;56.12
65659;BME280;60181;53.258;6.932;2023-04-20T08:10:22;102353.58;;;15.42;55.94
65659;BME280;60181;53.258;6.932;2023-04-20T08:14:26;102352.06;;;15.42;55.78
65659;BME280;60181;53.258;6.932;2023-04-20T08:18:30;102351.56;;;15.41;55.74
65659;BME280;60181;53.258;6.932;2023-04-20T08:22:34;102352.19;;;15.40;55.68
65659;BME280;60181;53.258;6.932;2023-04-20T08:26:38;102351.28;;;15.40;55.52
65659;BME280;60181;53.258;6.932;2023-04-20T08:30:42;102349.46;;;15.40;55.47
65659;BME280;60181;53.258;6.932;2023-04-20T08:34:46;102347.07;;;15.41;55.34
65659;BME280;60181;53.258;6.932;2023-04-20T08:38:52;102347.39;;;15.43;55.19
65659;BME280;60181;53.258;6.932;2023-04-20T08:42:55;102348.58;;;15.44;55.19
65659;BME280;60181;53.258;6.932;2023-04-20T08:46:58;102349.61;;;15.45;55.15
65659;BME280;60181;53.258;6.932;2023-04-20T08:51:02;102350.23;;;15.44;55.27
65659;BME280;60181;53.258;6.932;2023-04-20T08:55:06;102349.49;;;15.44;55.16
65659;BME280;60181;53.258;6.932;2023-04-20T08:59:10;102349.69;;;15.45;55.04
65659;BME280;60181;53.258;6.932;2023-04-20T09:03:14;102348.13;;;15.45;55.04
65659;BME280;60181;53.258;6.932;2023-04-20T09:07:19;102348.82;;;15.46;54.89
65659;BME280;60181;53.258;6.932;2023-04-20T09:11:28;102348.72;;;15.48;54.79
65659;BME280;60181;53.258;6.932;2023-04-20T09:15:30;102351.48;;;15.49;54.85
65659;BME280;60181;53.258;6.932;2023-04-20T09:19:30;102352.68;;;15.50;54.74
65659;BME280;60181;53.258;6.932;2023-04-20T09:23:34;102356.89;;;15.50;54.86
65659;BME280;60181;53.258;6.932;2023-04-20T09:27:38;102359.28;;;15.50;54.85
65659;BME280;60181;53.258;6.932;2023-04-20T09:31:42;102359.78;;;15.51;54.70
65659;BME280;60181;53.258;6.932;2023-04-20T09:35:46;102361.97;;;15.51;54.68
65659;BME280;60181;53.258;6.932;2023-04-20T09:39:50;102364.00;;;15.51;54.75
65659;BME280;60181;53.258;6.932;2023-04-20T09:43:54;102364.90;;;15.51;54.75
65659;BME280;60181;53.258;6.932;2023-04-20T09:47:58;102363.17;;;15.51;54.73
65659;BME280;60181;53.258;6.932;2023-04-20T09:52:02;102361.80;;;15.51;54.61
65659;BME280;60181;53.258;6.932;2023-04-20T09:56:06;102359.44;;;15.53;54.40
65659;BME280;60181;53.258;6.932;2023-04-20T10:00:10;102358.15;;;15.54;54.59
65659;BME280;60181;53.258;6.932;2023-04-20T10:04:14;102356.26;;;15.54;54.61
65659;BME280;60181;53.258;6.932;2023-04-20T10:08:18;102353.03;;;15.54;54.65
65659;BME280;60181;53.258;6.932;2023-04-20T10:12:22;102352.67;;;15.53;54.76
65659;BME280;60181;53.258;6.932;2023-04-20T10:16:26;102351.15;;;15.52;54.76
65659;BME280;60181;53.258;6.932;2023-04-20T10:20:30;102353.38;;;15.51;54.79
65659;BME280;60181;53.258;6.932;2023-04-20T10:24:34;102350.86;;;15.51;54.81
65659;BME280;60181;53.258;6.932;2023-04-20T10:28:38;102348.52;;;15.50;54.88
65659;BME280;60181;53.258;6.932;2023-04-20T10:32:42;102349.30;;;15.48;54.88
65659;BME280;60181;53.258;6.932;2023-04-20T10:36:46;102350.06;;;15.47;55.02
65659;BME280;60181;53.258;6.932;2023-04-20T10:40:50;102347.58;;;15.46;54.87
65659;BME280;60181;53.258;6.932;2023-04-20T10:44:54;102347.33;;;15.46;54.74
65659;BME280;60181;53.258;6.932;2023-04-20T10:48:58;102349.07;;;15.47;54.79
65659;BME280;60181;53.258;6.932;2023-04-20T10:53:02;102349.59;;;15.47;54.80
65659;BME280;60181;53.258;6.932;2023-04-20T10:57:06;102347.13;;;15.48;55.02
65659;BME280;60181;53.258;6.932;2023-04-20T11:01:10;102342.61;;;15.49;54.91
65659;BME280;60181;53.258;6.932;2023-04-20T11:05:14;102341.13;;;15.48;55.08
65659;BME280;60181;53.258;6.932;2023-04-20T11:09:21;102342.13;;;15.48;54.92
65659;BME280;60181;53.258;6.932;2023-04-20T11:13:22;102340.72;;;15.49;54.89
65659;BME280;60181;53.258;6.932;2023-04-20T11:17:32;102339.15;;;15.48;54.96
65659;BME280;60181;53.258;6.932;2023-04-20T11:21:36;102337.00;;;15.48;54.98
65659;BME280;60181;53.258;6.932;2023-04-20T11:25:34;102334.74;;;15.47;54.98
65659;BME280;60181;53.258;6.932;2023-04-20T11:29:38;102333.33;;;15.47;54.91
65659;BME280;60181;53.258;6.932;2023-04-20T11:33:42;102331.97;;;15.49;54.56
65659;BME280;60181;53.258;6.932;2023-04-20T11:37:47;102329.22;;;15.50;54.70
65659;BME280;60181;53.258;6.932;2023-04-20T11:41:50;102325.75;;;15.53;54.49
65659;BME280;60181;53.258;6.932;2023-04-20T11:45:54;102322.09;;;15.58;54.20
65659;BME280;60181;53.258;6.932;2023-04-20T11:49:58;102319.64;;;15.61;54.94
65659;BME280;60181;53.258;6.932;2023-04-20T11:54:02;102318.41;;;15.66;54.29
65659;BME280;60181;53.258;6.932;2023-04-20T11:58:06;102315.47;;;15.73;54.03
65659;BME280;60181;53.258;6.932;2023-04-20T12:02:10;102314.23;;;15.79;54.10
65659;BME280;60181;53.258;6.932;2023-04-20T12:06:14;102314.62;;;15.83;54.11
65659;BME280;60181;53.258;6.932;2023-04-20T12:10:18;102312.34;;;15.88;53.85
65659;BME280;60181;53.258;6.932;2023-04-20T12:14:22;102311.36;;;15.92;54.65
65659;BME280;60181;53.258;6.932;2023-04-20T12:18:26;102310.85;;;15.94;54.68
65659;BME280;60181;53.258;6.932;2023-04-20T12:22:30;102312.17;;;15.94;54.85
65659;BME280;60181;53.258;6.932;2023-04-20T12:26:34;102312.64;;;15.99;57.43
65659;BME280;60181;53.258;6.932;2023-04-20T12:30:38;102313.06;;;16.08;57.08
65659;BME280;60181;53.258;6.932;2023-04-20T12:34:42;102313.76;;;16.18;56.58
65659;BME280;60181;53.258;6.932;2023-04-20T12:38:46;102313.48;;;16.27;56.44
65659;BME280;60181;53.258;6.932;2023-04-20T12:42:50;102312.42;;;16.34;56.34
65659;BME280;60181;53.258;6.932;2023-04-20T12:46:54;102311.95;;;16.41;56.10
65659;BME280;60181;53.258;6.932;2023-04-20T12:50:58;102310.78;;;16.46;56.04
65659;BME280;60181;53.258;6.932;2023-04-20T12:55:02;102309.44;;;16.49;56.21
65659;BME280;60181;53.258;6.932;2023-04-20T12:59:06;102307.65;;;16.50;56.20
65659;BME280;60181;53.258;6.932;2023-04-20T13:03:10;102304.67;;;16.50;56.21
65659;BME280;60181;53.258;6.932;2023-04-20T13:07:14;102300.70;;;16.50;56.18
65659;BME280;60181;53.258;6.932;2023-04-20T13:11:18;102295.04;;;16.52;55.92
65659;BME280;60181;53.258;6.932;2023-04-20T13:15:22;102289.48;;;16.55;55.77
65659;BME280;60181;53.258;6.932;2023-04-20T13:19:29;102284.34;;;16.56;55.90
65659;BME280;60181;53.258;6.932;2023-04-20T13:23:30;102279.71;;;16.57;55.91
65659;BME280;60181;53.258;6.932;2023-04-20T13:27:34;102274.96;;;16.56;55.95
65659;BME280;60181;53.258;6.932;2023-04-20T13:31:38;102270.84;;;16.53;55.81
65659;BME280;60181;53.258;6.932;2023-04-20T13:35:42;102267.67;;;16.52;55.62
65659;BME280;60181;53.258;6.932;2023-04-20T13:39:46;102264.56;;;16.50;55.62
65659;BME280;60181;53.258;6.932;2023-04-20T13:43:50;102261.14;;;16.48;55.58
65659;BME280;60181;53.258;6.932;2023-04-20T13:47:54;102258.18;;;16.46;55.53
65659;BME280;60181;53.258;6.932;2023-04-20T13:51:58;102254.57;;;16.45;55.40
65659;BME280;60181;53.258;6.932;2023-04-20T13:56:02;102250.98;;;16.43;55.33
65659;BME280;60181;53.258;6.932;2023-04-20T14:00:06;102247.44;;;16.41;55.26
65659;BME280;60181;53.258;6.932;2023-04-20T14:04:10;102242.38;;;16.40;55.20
65659;BME280;60181;53.258;6.932;2023-04-20T14:08:14;102236.39;;;16.39;55.14
65659;BME280;60181;53.258;6.932;2023-04-20T14:12:18;102232.79;;;16.38;55.14
65659;BME280;60181;53.258;6.932;2023-04-20T14:16:23;102231.50;;;16.35;55.41
65659;BME280;60181;53.258;6.932;2023-04-20T14:20:26;102231.25;;;16.32;55.53
65659;BME280;60181;53.258;6.932;2023-04-20T14:24:30;102229.86;;;16.30;55.43
65659;BME280;60181;53.258;6.932;2023-04-20T14:28:34;102229.06;;;16.28;55.38
65659;BME280;60181;53.258;6.932;2023-04-20T14:32:38;102228.20;;;16.27;55.29
65659;BME280;60181;53.258;6.932;2023-04-20T14:36:42;102225.28;;;16.25;55.43
65659;BME280;60181;53.258;6.932;2023-04-20T14:40:46;102224.22;;;16.23;55.42
65659;BME280;60181;53.258;6.932;2023-04-20T14:44:50;102221.03;;;16.21;55.46
65659;BME280;60181;53.258;6.932;2023-04-20T14:48:54;102217.91;;;16.18;55.33
65659;BME280;60181;53.258;6.932;2023-04-20T14:52:57;102213.72;;;16.16;55.33
65659;BME280;60181;53.258;6.932;2023-04-20T14:57:02;102209.25;;;16.16;55.06
65659;BME280;60181;53.258;6.932;2023-04-20T15:01:05;102204.86;;;16.16;55.18
65659;BME280;60181;53.258;6.932;2023-04-20T15:05:09;102199.41;;;16.16;55.02
65659;BME280;60181;53.258;6.932;2023-04-20T15:09:13;102193.38;;;16.16;55.06
65659;BME280;60181;53.258;6.932;2023-04-20T15:13:17;102188.25;;;16.16;55.05
65659;BME280;60181;53.258;6.932;2023-04-20T15:17:21;102185.86;;;16.16;55.17
65659;BME280;60181;53.258;6.932;2023-04-20T15:21:25;102184.17;;;16.15;55.20
65659;BME280;60181;53.258;6.932;2023-04-20T15:25:29;102181.03;;;16.15;55.04
65659;BME280;60181;53.258;6.932;2023-04-20T15:29:34;102179.32;;;16.14;55.13
65659;BME280;60181;53.258;6.932;2023-04-20T15:33:37;102178.24;;;16.13;54.97
65659;BME280;60181;53.258;6.932;2023-04-20T15:37:43;102176.84;;;16.13;55.05
65659;BME280;60181;53.258;6.932;2023-04-20T15:41:45;102174.49;;;16.12;55.02
65659;BME280;60181;53.258;6.932;2023-04-20T15:45:49;102170.58;;;16.11;55.06
65659;BME280;60181;53.258;6.932;2023-04-20T15:49:53;102167.95;;;16.09;55.14
65659;BME280;60181;53.258;6.932;2023-04-20T15:53:57;102165.78;;;16.08;55.13
65659;BME280;60181;53.258;6.932;2023-04-20T15:58:01;102165.12;;;16.07;55.05
65659;BME280;60181;53.258;6.932;2023-04-20T16:02:05;102162.53;;;16.06;55.16
65659;BME280;60181;53.258;6.932;2023-04-20T16:06:09;102160.92;;;16.05;55.08
65659;BME280;60181;53.258;6.932;2023-04-20T16:10:13;102160.31;;;16.04;54.92
65659;BME280;60181;53.258;6.932;2023-04-20T16:14:17;102158.67;;;16.04;55.01
65659;BME280;60181;53.258;6.932;2023-04-20T16:18:22;102158.06;;;16.03;55.12
65659;BME280;60181;53.258;6.932;2023-04-20T16:22:25;102157.79;;;16.00;55.22
65659;BME280;60181;53.258;6.932;2023-04-20T16:26:29;102159.47;;;15.98;55.29
65659;BME280;60181;53.258;6.932;2023-04-20T16:30:33;102161.24;;;15.95;55.30
65659;BME280;60181;53.258;6.932;2023-04-20T16:34:37;102162.41;;;15.93;55.37
65659;BME280;60181;53.258;6.932;2023-04-20T16:38:41;102161.61;;;15.91;55.38
65659;BME280;60181;53.258;6.932;2023-04-20T16:42:45;102162.95;;;15.88;55.51
65659;BME280;60181;53.258;6.932;2023-04-20T16:46:49;102162.97;;;15.86;55.46
65659;BME280;60181;53.258;6.932;2023-04-20T16:50:53;102162.71;;;15.84;55.55
65659;BME280;60181;53.258;6.932;2023-04-20T16:54:57;102161.49;;;15.82;55.64
65659;BME280;60181;53.258;6.932;2023-04-20T16:59:01;102162.04;;;15.80;55.75
65659;BME280;60181;53.258;6.932;2023-04-20T17:03:05;102163.42;;;15.79;55.71
65659;BME280;60181;53.258;6.932;2023-04-20T17:07:09;102164.26;;;15.77;55.77
65659;BME280;60181;53.258;6.932;2023-04-20T17:11:13;102166.60;;;15.76;55.86
65659;BME280;60181;53.258;6.932;2023-04-20T17:15:17;102169.45;;;15.74;55.92
65659;BME280;60181;53.258;6.932;2023-04-20T17:19:21;102170.95;;;15.72;55.93
65659;BME280;60181;53.258;6.932;2023-04-20T17:23:25;102172.63;;;15.70;56.01
65659;BME280;60181;53.258;6.932;2023-04-20T17:27:29;102173.50;;;15.69;56.04
65659;BME280;60181;53.258;6.932;2023-04-20T17:31:33;102175.78;;;15.68;56.08
65659;BME280;60181;53.258;6.932;2023-04-20T17:35:37;102177.32;;;15.66;56.13
65659;BME280;60181;53.258;6.932;2023-04-20T17:39:41;102179.97;;;15.66;56.12
65659;BME280;60181;53.258;6.932;2023-04-20T17:43:45;102182.08;;;15.65;56.24
65659;BME280;60181;53.258;6.932;2023-04-20T17:47:49;102184.81;;;15.65;56.19
65659;BME280;60181;53.258;6.932;2023-04-20T17:51:53;102187.13;;;15.65;56.17
65659;BME280;60181;53.258;6.932;2023-04-20T17:55:57;102187.61;;;15.65;56.29
65659;BME280;60181;53.258;6.932;2023-04-20T18:00:02;102188.97;;;15.72;59.46
65659;BME280;60181;53.258;6.932;2023-04-20T18:04:05;102189.81;;;15.79;59.09
65659;BME280;60181;53.258;6.932;2023-04-20T18:08:09;102190.30;;;15.81;59.00
65659;BME280;60181;53.258;6.932;2023-04-20T18:12:13;102191.82;;;15.81;58.37
65659;BME280;60181;53.258;6.932;2023-04-20T18:16:17;102191.40;;;15.82;58.25
65659;BME280;60181;53.258;6.932;2023-04-20T18:20:21;102189.63;;;15.81;58.39
65659;BME280;60181;53.258;6.932;2023-04-20T18:24:25;102191.58;;;15.80;58.38
65659;BME280;60181;53.258;6.932;2023-04-20T18:28:29;102193.86;;;15.78;58.32
65659;BME280;60181;53.258;6.932;2023-04-20T18:32:33;102197.69;;;15.77;58.34
65659;BME280;60181;53.258;6.932;2023-04-20T18:36:37;102199.44;;;15.74;58.36
65659;BME280;60181;53.258;6.932;2023-04-20T18:40:41;102200.97;;;15.73;58.30
65659;BME280;60181;53.258;6.932;2023-04-20T18:44:45;102202.01;;;15.71;58.22
65659;BME280;60181;53.258;6.932;2023-04-20T18:48:49;102200.87;;;15.70;58.28
65659;BME280;60181;53.258;6.932;2023-04-20T18:52:53;102200.93;;;15.69;58.27
65659;BME280;60181;53.258;6.932;2023-04-20T18:56:57;102201.67;;;15.69;58.06
65659;BME280;60181;53.258;6.932;2023-04-20T19:01:01;102205.36;;;15.68;58.15
65659;BME280;60181;53.258;6.932;2023-04-20T19:05:06;102205.52;;;15.67;58.09
65659;BME280;60181;53.258;6.932;2023-04-20T19:09:09;102205.57;;;15.66;58.07
65659;BME280;60181;53.258;6.932;2023-04-20T19:13:13;102207.14;;;15.66;58.07
65659;BME280;60181;53.258;6.932;2023-04-20T19:17:17;102206.20;;;15.65;58.03
65659;BME280;60181;53.258;6.932;2023-04-20T19:21:21;102204.38;;;15.65;58.02
65659;BME280;60181;53.258;6.932;2023-04-20T19:25:25;102202.23;;;15.65;57.97
65659;BME280;60181;53.258;6.932;2023-04-20T19:29:29;102199.89;;;15.64;57.94
65659;BME280;60181;53.258;6.932;2023-04-20T19:33:33;102196.59;;;15.64;57.93
65659;BME280;60181;53.258;6.932;2023-04-20T19:37:37;102195.18;;;15.64;57.83
65659;BME280;60181;53.258;6.932;2023-04-20T19:41:41;102194.02;;;15.64;57.81
65659;BME280;60181;53.258;6.932;2023-04-20T19:45:45;102191.88;;;15.64;57.79
65659;BME280;60181;53.258;6.932;2023-04-20T19:49:49;102192.13;;;15.64;57.71
65659;BME280;60181;53.258;6.932;2023-04-20T19:53:53;102192.05;;;15.64;57.78
65659;BME280;60181;53.258;6.932;2023-04-20T19:57:57;102189.15;;;15.64;57.88
65659;BME280;60181;53.258;6.932;2023-04-20T20:02:01;102187.50;;;15.64;57.80
65659;BME280;60181;53.258;6.932;2023-04-20T20:06:05;102184.53;;;15.64;57.80
65659;BME280;60181;53.258;6.932;2023-04-20T20:10:09;102178.71;;;15.63;57.85
65659;BME280;60181;53.258;6.932;2023-04-20T20:14:14;102173.35;;;15.63;57.87
65659;BME280;60181;53.258;6.932;2023-04-20T20:18:17;102170.70;;;15.63;57.87
65659;BME280;60181;53.258;6.932;2023-04-20T20:22:21;102168.57;;;15.66;58.95
65659;BME280;60181;53.258;6.932;2023-04-20T20:26:25;102167.17;;;15.69;58.19
65659;BME280;60181;53.258;6.932;2023-04-20T20:30:29;102165.11;;;15.70;58.46
65659;BME280;60181;53.258;6.932;2023-04-20T20:34:33;102161.31;;;15.70;58.64
65659;BME280;60181;53.258;6.932;2023-04-20T20:38:37;102156.19;;;15.69;58.62
65659;BME280;60181;53.258;6.932;2023-04-20T20:42:41;102154.29;;;15.69;58.63
65659;BME280;60181;53.258;6.932;2023-04-20T20:46:45;102152.77;;;15.69;58.66
65659;BME280;60181;53.258;6.932;2023-04-20T20:50:49;102150.95;;;15.68;58.51
65659;BME280;60181;53.258;6.932;2023-04-20T20:54:53;102148.61;;;15.68;58.52
65659;BME280;60181;53.258;6.932;2023-04-20T20:58:57;102146.22;;;15.67;58.48
65659;BME280;60181;53.258;6.932;2023-04-20T21:03:01;102144.04;;;15.67;58.49
65659;BME280;60181;53.258;6.932;2023-04-20T21:07:05;102142.80;;;15.66;58.42
65659;BME280;60181;53.258;6.932;2023-04-20T21:11:09;102141.82;;;15.66;58.36
65659;BME280;60181;53.258;6.932;2023-04-20T21:15:13;102139.25;;;15.66;58.25